Londonderry, United Kingdom
Current Conditions -  °F | °C
As of 8:50 AM on Monday 20 Oct 2014 (Local Time) from EGAE Reporting Station
Rain Showers Rain Showers  
Wind Chill: 11°   Ceiling: 4800
Heat Index: 11°   Visibility: 6mi
Dew Point: 10°   Wind: 17mph
Humidity: 94%   Direction: 220°SW
Pressure: 29.77"   Gusts: NA
Location:  54.99°N, 7.31°W
Report Text: EGAE 200750Z 22015KT 9000 VCSH SCT009 SCT022 BKN048 11/10 Q1008
Loading
Personal Weather Stations






























Interactive Weather Map
Tropical Storm Tracking
New forecast layout! Learn more

10-Day Weather Forecast

Advertisements
Track Severe Weather on mobile